Wabush, Canada
Current Conditions -  °F | °C
As of 2:10 AM on Friday 31 Oct 2014 (Local Time) from CYWK Reporting Station
Overcast Overcast  
Wind Chill: -7°   Ceiling: 3400
Heat Index: -2°   Visibility: 9mi
Dew Point: -6°   Wind: 10mph
Humidity: 74%   Direction: 260°W
Pressure: 29.7"   Gusts: NA
Location:  52.9°N, 66.87°W
Report Text: CYWK 310510Z AUTO 26009KT 9SM OVC034 M02/M06 A2970 RMK ICG SLP085
Loading
Personal Weather Stations






























Interactive Weather Map
Tropical Storm Tracking
New forecast layout! Learn more

10-Day Weather Forecast

Advertisements
Track Severe Weather on mobile